createdAt,value
2018-12-24T00:00:29.189Z,1014.46
2018-12-24T00:01:31.139Z,1014.50
2018-12-24T00:02:28.210Z,1014.50
2018-12-24T00:03:28.202Z,1014.54
2018-12-24T00:04:28.149Z,1014.59
2018-12-24T00:05:28.148Z,1014.66
2018-12-24T00:06:28.112Z,1014.71
2018-12-24T00:07:28.088Z,1014.73
2018-12-24T00:08:30.640Z,1014.70
2018-12-24T00:09:28.065Z,1014.69
2018-12-24T00:10:28.044Z,1014.70
2018-12-24T00:11:28.694Z,1014.76
2018-12-24T00:12:29.683Z,1014.86
2018-12-24T00:13:27.978Z,1014.82
2018-12-24T00:14:30.640Z,1014.86
2018-12-24T00:15:30.640Z,1014.93
2018-12-24T00:16:32.641Z,1014.91
2018-12-24T00:17:30.141Z,1014.93
2018-12-24T00:18:28.690Z,1014.96
2018-12-24T00:19:30.150Z,1014.99
2018-12-24T00:20:28.697Z,1014.99
2018-12-24T00:21:30.141Z,1014.93
2018-12-24T00:22:30.141Z,1014.92
2018-12-24T00:23:30.151Z,1014.90
2018-12-24T00:24:27.757Z,1014.93
2018-12-24T00:25:27.725Z,1014.97
2018-12-24T00:26:27.716Z,1015.03
2018-12-24T00:27:27.689Z,1015.08
2018-12-24T00:28:27.669Z,1015.11
2018-12-24T00:29:27.635Z,1015.09
2018-12-24T00:30:31.143Z,1015.14
2018-12-24T00:31:28.267Z,1015.12
2018-12-24T00:32:31.143Z,1015.17
2018-12-24T00:33:28.226Z,1015.21
2018-12-24T00:34:29.148Z,1015.22
2018-12-24T00:35:29.201Z,1015.23
2018-12-24T00:36:30.143Z,1015.22
2018-12-24T00:37:27.759Z,1015.23
2018-12-24T00:38:28.194Z,1015.23
2018-12-24T00:39:29.148Z,1015.27
2018-12-24T00:40:28.169Z,1015.28
2018-12-24T00:41:30.145Z,1015.34
2018-12-24T00:42:30.162Z,1015.33
2018-12-24T00:43:27.355Z,1015.37
2018-12-24T00:44:27.340Z,1015.34
2018-12-24T00:45:30.145Z,1015.35
2018-12-24T00:46:27.323Z,1015.37
2018-12-24T00:47:27.285Z,1015.43
2018-12-24T00:48:31.157Z,1015.43
2018-12-24T00:49:28.149Z,1015.46
2018-12-24T00:50:27.222Z,1015.49
2018-12-24T00:51:27.204Z,1015.55
2018-12-24T00:52:28.151Z,1015.62
2018-12-24T00:53:32.156Z,1015.63
2018-12-24T00:54:29.671Z,1015.65
2018-12-24T00:55:27.095Z,1015.68
2018-12-24T00:56:28.155Z,1015.71
2018-12-24T00:57:27.087Z,1015.78
2018-12-24T00:58:27.727Z,1015.76
2018-12-24T00:59:28.151Z,1015.81
2018-12-24T01:00:27.729Z,1015.95
2018-12-24T01:01:28.178Z,1015.97
2018-12-24T01:02:27.286Z,1016.09
2018-12-24T01:03:27.713Z,1016.09
2018-12-24T01:04:30.648Z,1016.14
2018-12-24T01:05:27.708Z,1016.19
2018-12-24T01:06:29.648Z,1016.21
2018-12-24T01:07:29.150Z,1016.21
2018-12-24T01:08:27.697Z,1016.22
2018-12-24T01:09:31.650Z,1016.29
2018-12-24T01:10:27.694Z,1016.32
2018-12-24T01:11:29.652Z,1016.34
2018-12-24T01:12:30.648Z,1016.39
2018-12-24T01:13:26.772Z,1016.37
2018-12-24T01:14:27.690Z,1016.37
2018-12-24T01:15:28.649Z,1016.38
2018-12-24T01:16:27.742Z,1016.44
2018-12-24T01:17:28.150Z,1016.48
2018-12-24T01:18:27.250Z,1016.49
2018-12-24T01:19:26.629Z,1016.54
2018-12-24T01:20:27.655Z,1016.57
2018-12-24T01:21:27.238Z,1016.59
2018-12-24T01:22:27.199Z,1016.62
2018-12-24T01:23:27.191Z,1016.66
2018-12-24T01:24:27.204Z,1016.71
2018-12-24T01:25:29.658Z,1016.70
2018-12-24T01:26:27.691Z,1016.66
2018-12-24T01:27:27.199Z,1016.69
2018-12-24T01:28:27.213Z,1016.67
2018-12-24T01:29:28.160Z,1016.69
2018-12-24T01:30:27.167Z,1016.70
2018-12-24T01:31:27.187Z,1016.79
2018-12-24T01:32:27.655Z,1016.82
2018-12-24T01:33:27.238Z,1016.85
2018-12-24T01:34:27.215Z,1016.81
2018-12-24T01:35:27.200Z,1016.86
2018-12-24T01:36:27.668Z,1016.88
2018-12-24T01:37:31.152Z,1016.92
2018-12-24T01:38:27.654Z,1016.97
2018-12-24T01:39:28.154Z,1016.95
2018-12-24T01:40:26.183Z,1016.99
2018-12-24T01:41:26.164Z,1017.03
2018-12-24T01:42:33.354Z,1017.09
2018-12-24T01:43:26.125Z,1017.12
2018-12-24T01:44:28.659Z,1017.12
2018-12-24T01:45:26.088Z,1017.17
2018-12-24T01:46:27.653Z,1017.26
2018-12-24T01:47:28.662Z,1017.24
2018-12-24T01:48:27.703Z,1017.26
2018-12-24T01:49:26.730Z,1017.28
2018-12-24T01:50:25.995Z,1017.28
2018-12-24T01:51:26.700Z,1017.34
2018-12-24T01:52:28.154Z,1017.35
2018-12-24T01:53:28.655Z,1017.33
2018-12-24T01:54:25.883Z,1017.34
2018-12-24T01:55:25.873Z,1017.32
2018-12-24T01:56:29.163Z,1017.33
2018-12-24T01:57:32.656Z,1017.34
2018-12-24T01:58:25.813Z,1017.36
2018-12-24T01:59:25.798Z,1017.41
2018-12-24T02:00:26.684Z,1017.39
2018-12-24T02:01:26.683Z,1017.41
2018-12-24T02:02:26.655Z,1017.40
2018-12-24T02:03:26.690Z,1017.39
2018-12-24T02:04:25.680Z,1017.44
2018-12-24T02:05:27.155Z,1017.47
2018-12-24T02:06:27.721Z,1017.53
2018-12-24T02:07:28.156Z,1017.57
2018-12-24T02:08:28.656Z,1017.54
2018-12-24T02:09:27.160Z,1017.55
2018-12-24T02:10:28.158Z,1017.51
2018-12-24T02:11:27.156Z,1017.55
2018-12-24T02:12:28.157Z,1017.52
2018-12-24T02:13:28.157Z,1017.58
2018-12-24T02:14:29.667Z,1017.59
2018-12-24T02:15:28.157Z,1017.67
2018-12-24T02:16:26.198Z,1017.63
2018-12-24T02:17:27.157Z,1017.66
2018-12-24T02:18:27.657Z,1017.66
2018-12-24T02:19:25.372Z,1017.74
2018-12-24T02:20:25.363Z,1017.71
2018-12-24T02:21:25.347Z,1017.77
2018-12-24T02:22:25.312Z,1017.80
2018-12-24T02:23:25.318Z,1017.75
2018-12-24T02:24:25.272Z,1017.81
2018-12-24T02:25:25.258Z,1017.85
2018-12-24T02:26:25.250Z,1017.83
2018-12-24T02:27:27.168Z,1017.80
2018-12-24T02:28:25.324Z,1017.87
2018-12-24T02:29:28.659Z,1017.85
2018-12-24T02:30:26.207Z,1017.79
2018-12-24T02:31:27.658Z,1017.80
2018-12-24T02:32:26.215Z,1017.84
2018-12-24T02:33:28.163Z,1017.85
2018-12-24T02:34:27.690Z,1017.89
2018-12-24T02:35:27.660Z,1017.91
2018-12-24T02:36:27.662Z,1017.93
2018-12-24T02:37:28.659Z,1017.96
2018-12-24T02:38:34.169Z,1018.03
2018-12-24T02:39:25.029Z,1018.00
2018-12-24T02:40:25.662Z,1018.02
2018-12-24T02:41:24.928Z,1018.04
2018-12-24T02:42:24.917Z,1018.07
2018-12-24T02:43:27.687Z,1018.05
2018-12-24T02:44:27.661Z,1018.04
2018-12-24T02:45:25.714Z,1018.07
2018-12-24T02:46:24.828Z,1018.08
2018-12-24T02:47:25.705Z,1018.07
2018-12-24T02:48:27.170Z,1018.07
2018-12-24T02:49:26.167Z,1018.16
2018-12-24T02:50:24.740Z,1018.15
2018-12-24T02:51:27.666Z,1018.17
2018-12-24T02:52:27.173Z,1018.16
2018-12-24T02:53:26.162Z,1018.20
2018-12-24T02:54:26.671Z,1018.24
2018-12-24T02:55:25.232Z,1018.26
2018-12-24T02:56:25.704Z,1018.26
2018-12-24T02:57:27.179Z,1018.33
2018-12-24T02:58:25.701Z,1018.33
2018-12-24T02:59:26.207Z,1018.39
2018-12-24T03:00:26.217Z,1018.41
2018-12-24T03:01:27.671Z,1018.40
2018-12-24T03:02:28.205Z,1018.50
2018-12-24T03:03:27.249Z,1018.52
2018-12-24T03:04:25.693Z,1018.51
2018-12-24T03:05:26.664Z,1018.51
2018-12-24T03:06:25.695Z,1018.57
2018-12-24T03:07:28.670Z,1018.53
2018-12-24T03:08:26.195Z,1018.59
2018-12-24T03:09:28.167Z,1018.59
2018-12-24T03:10:29.163Z,1018.63
2018-12-24T03:11:26.666Z,1018.63
2018-12-24T03:12:30.175Z,1018.60
2018-12-24T03:13:26.668Z,1018.60
2018-12-24T03:14:27.184Z,1018.66
2018-12-24T03:15:25.724Z,1018.65
2018-12-24T03:16:26.665Z,1018.65
2018-12-24T03:17:25.702Z,1018.63
2018-12-24T03:18:25.700Z,1018.64
2018-12-24T03:19:24.696Z,1018.66
2018-12-24T03:20:24.709Z,1018.68
2018-12-24T03:21:24.769Z,1018.67
2018-12-24T03:22:25.205Z,1018.74
2018-12-24T03:23:25.685Z,1018.78
2018-12-24T03:24:24.716Z,1018.75
2018-12-24T03:25:24.767Z,1018.79
2018-12-24T03:26:26.666Z,1018.83
2018-12-24T03:27:24.675Z,1018.83
2018-12-24T03:28:24.709Z,1018.80
2018-12-24T03:29:26.671Z,1018.86
2018-12-24T03:30:25.675Z,1018.88
2018-12-24T03:31:25.679Z,1018.89
2018-12-24T03:32:24.707Z,1018.89
2018-12-24T03:33:27.698Z,1018.91
2018-12-24T03:34:25.685Z,1018.91
2018-12-24T03:35:28.668Z,1018.88
2018-12-24T03:36:23.794Z,1018.91
2018-12-24T03:37:23.785Z,1018.92
2018-12-24T03:38:25.713Z,1018.96
2018-12-24T03:39:27.325Z,1018.98
2018-12-24T03:40:24.717Z,1019.00
2018-12-24T03:41:25.668Z,1019.01
2018-12-24T03:42:27.233Z,1019.07
2018-12-24T03:43:23.649Z,1019.09
2018-12-24T03:44:26.669Z,1019.14
2018-12-24T03:45:24.712Z,1019.13
2018-12-24T03:46:24.767Z,1019.17
2018-12-24T03:47:23.562Z,1019.14
2018-12-24T03:48:28.169Z,1019.14
2018-12-24T03:49:24.209Z,1019.13
2018-12-24T03:50:23.550Z,1019.12
2018-12-24T03:51:23.495Z,1019.18
2018-12-24T03:52:23.476Z,1019.17
2018-12-24T03:53:23.453Z,1019.21
2018-12-24T03:54:23.448Z,1019.26
2018-12-24T03:55:28.671Z,1019.30
2018-12-24T03:56:26.679Z,1019.31
2018-12-24T03:57:25.171Z,1019.39
2018-12-24T03:58:24.216Z,1019.39
2018-12-24T03:59:25.186Z,1019.42
2018-12-24T04:00:26.173Z,1019.46
2018-12-24T04:01:26.683Z,1019.48
2018-12-24T04:02:24.243Z,1019.46
2018-12-24T04:03:25.172Z,1019.45
2018-12-24T04:04:24.710Z,1019.45
2018-12-24T04:05:24.673Z,1019.48
2018-12-24T04:06:24.230Z,1019.51
2018-12-24T04:07:24.709Z,1019.52
2018-12-24T04:08:23.757Z,1019.55
2018-12-24T04:09:24.711Z,1019.54
2018-12-24T04:10:24.673Z,1019.56
2018-12-24T04:11:24.235Z,1019.54
2018-12-24T04:12:25.683Z,1019.54
2018-12-24T04:13:23.760Z,1019.57
2018-12-24T04:14:24.714Z,1019.61
2018-12-24T04:15:27.672Z,1019.61
2018-12-24T04:16:22.976Z,1019.69
2018-12-24T04:17:27.173Z,1019.65
2018-12-24T04:18:25.673Z,1019.65
2018-12-24T04:19:22.919Z,1019.71
2018-12-24T04:20:25.684Z,1019.73
2018-12-24T04:21:22.974Z,1019.78
2018-12-24T04:22:23.297Z,1019.77
2018-12-24T04:23:26.682Z,1019.78
2018-12-24T04:24:23.716Z,1019.74
2018-12-24T04:25:25.175Z,1019.81
2018-12-24T04:26:24.219Z,1019.84
2018-12-24T04:27:23.713Z,1019.81
2018-12-24T04:28:23.727Z,1019.85
2018-12-24T04:29:25.175Z,1019.84
2018-12-24T04:30:24.716Z,1019.90
2018-12-24T04:31:24.674Z,1019.94
2018-12-24T04:32:27.185Z,1019.90
2018-12-24T04:33:23.713Z,1019.93
2018-12-24T04:34:23.217Z,1019.97
2018-12-24T04:35:22.589Z,1020.00
2018-12-24T04:36:23.242Z,1020.00
2018-12-24T04:37:23.248Z,1020.02
2018-12-24T04:38:23.178Z,1020.09
2018-12-24T04:39:26.686Z,1020.09
2018-12-24T04:40:25.687Z,1020.06
2018-12-24T04:41:23.720Z,1020.12
2018-12-24T04:42:25.186Z,1020.16
2018-12-24T04:43:32.197Z,1020.20
2018-12-24T04:44:23.236Z,1020.21
2018-12-24T04:45:23.733Z,1020.26
2018-12-24T04:46:25.678Z,1020.26
2018-12-24T04:47:24.178Z,1020.30
2018-12-24T04:48:22.372Z,1020.27
2018-12-24T04:49:26.681Z,1020.32
2018-12-24T04:50:24.235Z,1020.32
2018-12-24T04:51:24.211Z,1020.36
2018-12-24T04:52:23.729Z,1020.30
2018-12-24T04:53:23.684Z,1020.35
2018-12-24T04:54:23.234Z,1020.40
2018-12-24T04:55:23.728Z,1020.36
2018-12-24T04:56:23.678Z,1020.40
2018-12-24T04:57:23.729Z,1020.45
2018-12-24T04:58:23.727Z,1020.49
2018-12-24T04:59:23.696Z,1020.51
2018-12-24T05:00:24.231Z,1020.53
2018-12-24T05:01:26.178Z,1020.52
2018-12-24T05:02:25.180Z,1020.57
2018-12-24T05:03:23.731Z,1020.56
2018-12-24T05:04:24.180Z,1020.58
2018-12-24T05:05:28.681Z,1020.63
2018-12-24T05:06:25.682Z,1020.67
2018-12-24T05:07:23.690Z,1020.66
2018-12-24T05:08:25.182Z,1020.71
2018-12-24T05:09:23.734Z,1020.71
2018-12-24T05:10:21.877Z,1020.69
2018-12-24T05:11:28.682Z,1020.72
2018-12-24T05:12:26.680Z,1020.76
2018-12-24T05:13:24.690Z,1020.79
2018-12-24T05:14:23.723Z,1020.87
2018-12-24T05:15:26.680Z,1020.92
2018-12-24T05:16:24.250Z,1020.86
2018-12-24T05:17:21.798Z,1020.94
2018-12-24T05:18:25.231Z,1020.97
2018-12-24T05:19:24.217Z,1020.98
2018-12-24T05:20:23.230Z,1021.01
2018-12-24T05:21:22.682Z,1021.03
2018-12-24T05:22:24.274Z,1021.04
2018-12-24T05:23:23.725Z,1021.10
2018-12-24T05:24:24.181Z,1021.08
2018-12-24T05:25:26.682Z,1021.12
2018-12-24T05:26:35.181Z,1021.17
2018-12-24T05:27:23.682Z,1021.19
2018-12-24T05:28:27.183Z,1021.21
2018-12-24T05:29:25.683Z,1021.21
2018-12-24T05:30:22.693Z,1021.24
2018-12-24T05:31:23.203Z,1021.26
2018-12-24T05:32:23.184Z,1021.30
2018-12-24T05:33:23.790Z,1021.31
2018-12-24T05:34:26.697Z,1021.37
2018-12-24T05:35:21.359Z,1021.41
2018-12-24T05:36:24.684Z,1021.40
2018-12-24T05:37:25.684Z,1021.45
2018-12-24T05:38:23.725Z,1021.45
2018-12-24T05:39:25.694Z,1021.52
2018-12-24T05:40:26.753Z,1021.51
2018-12-24T05:41:23.186Z,1021.56
2018-12-24T05:42:25.194Z,1021.57
2018-12-24T05:43:22.693Z,1021.63
2018-12-24T05:44:24.193Z,1021.62
2018-12-24T05:45:23.186Z,1021.66
2018-12-24T05:46:24.686Z,1021.67
2018-12-24T05:47:24.703Z,1021.66
2018-12-24T05:48:26.193Z,1021.69
2018-12-24T05:49:23.196Z,1021.72
2018-12-24T05:50:29.187Z,1021.70
2018-12-24T05:51:25.695Z,1021.73
2018-12-24T05:52:24.186Z,1021.72
2018-12-24T05:53:21.733Z,1021.78
2018-12-24T05:54:24.186Z,1021.77
2018-12-24T05:55:22.187Z,1021.78
2018-12-24T05:56:20.943Z,1021.81
2018-12-24T05:57:23.686Z,1021.85
2018-12-24T05:58:21.690Z,1021.92
2018-12-24T05:59:23.215Z,1021.93
2018-12-24T06:00:23.696Z,1022.00
2018-12-24T06:01:32.198Z,1022.03
2018-12-24T06:02:23.199Z,1022.08
2018-12-24T06:03:22.223Z,1022.13
2018-12-24T06:04:23.737Z,1022.15
2018-12-24T06:05:26.692Z,1022.22
2018-12-24T06:06:24.698Z,1022.32
2018-12-24T06:07:21.739Z,1022.34
2018-12-24T06:08:26.192Z,1022.34
2018-12-24T06:09:21.689Z,1022.41
2018-12-24T06:10:22.239Z,1022.46
2018-12-24T06:11:23.692Z,1022.48
2018-12-24T06:12:24.699Z,1022.56
2018-12-24T06:13:21.195Z,1022.60
2018-12-24T06:14:27.189Z,1022.64
2018-12-24T06:15:21.244Z,1022.64
2018-12-24T06:16:30.698Z,1022.68
2018-12-24T06:17:23.700Z,1022.72
2018-12-24T06:18:24.190Z,1022.74
2018-12-24T06:19:20.482Z,1022.76
2018-12-24T06:20:25.189Z,1022.74
2018-12-24T06:21:23.691Z,1022.77
2018-12-24T06:22:29.690Z,1022.79
2018-12-24T06:23:22.239Z,1022.80
2018-12-24T06:24:26.198Z,1022.81
2018-12-24T06:25:21.296Z,1022.87
2018-12-24T06:26:27.199Z,1022.89
2018-12-24T06:27:27.701Z,1022.90
2018-12-24T06:28:22.199Z,1022.92
2018-12-24T06:29:26.700Z,1022.97
2018-12-24T06:30:24.193Z,1023.00
2018-12-24T06:31:23.760Z,1023.02
2018-12-24T06:32:27.701Z,1023.09
2018-12-24T06:33:20.723Z,1023.04
2018-12-24T06:34:26.217Z,1023.08
2018-12-24T06:35:25.231Z,1023.07
2018-12-24T06:36:27.713Z,1023.10
2018-12-24T06:37:21.733Z,1023.12
2018-12-24T06:38:26.195Z,1023.16
2018-12-24T06:39:24.193Z,1023.22
2018-12-24T06:40:25.193Z,1023.27
2018-12-24T06:41:26.203Z,1023.27
2018-12-24T06:42:23.736Z,1023.33
2018-12-24T06:43:21.261Z,1023.35
2018-12-24T06:44:27.706Z,1023.36
2018-12-24T06:45:27.194Z,1023.38
2018-12-24T06:46:23.197Z,1023.43
2018-12-24T06:47:28.694Z,1023.42
2018-12-24T06:48:34.197Z,1023.44
2018-12-24T06:49:27.694Z,1023.41
2018-12-24T06:50:24.695Z,1023.43
2018-12-24T06:51:27.205Z,1023.49
2018-12-24T06:52:25.195Z,1023.45
2018-12-24T06:53:21.257Z,1023.46
2018-12-24T06:54:22.242Z,1023.51
2018-12-24T06:55:22.695Z,1023.49
2018-12-24T06:56:22.204Z,1023.52
2018-12-24T06:57:23.209Z,1023.48
2018-12-24T06:58:26.696Z,1023.46
2018-12-24T06:59:23.201Z,1023.49
2018-12-24T07:00:25.195Z,1023.51
2018-12-24T07:01:20.195Z,1023.52
2018-12-24T07:02:27.705Z,1023.52
2018-12-24T07:03:23.222Z,1023.55
2018-12-24T07:04:24.197Z,1023.58
2018-12-24T07:05:20.707Z,1023.62
2018-12-24T07:06:22.196Z,1023.64
2018-12-24T07:07:23.222Z,1023.63
2018-12-24T07:08:25.206Z,1023.62
2018-12-24T07:09:25.706Z,1023.60
2018-12-24T07:10:23.197Z,1023.60
2018-12-24T07:11:23.754Z,1023.63
2018-12-24T07:12:24.707Z,1023.65
2018-12-24T07:13:21.716Z,1023.65
2018-12-24T07:14:26.698Z,1023.70
2018-12-24T07:15:26.698Z,1023.74
2018-12-24T07:16:27.698Z,1023.77
2018-12-24T07:17:21.226Z,1023.80
2018-12-24T07:18:22.701Z,1023.81
2018-12-24T07:19:24.205Z,1023.84
2018-12-24T07:20:26.199Z,1023.88
2018-12-24T07:21:23.700Z,1023.90
2018-12-24T07:22:27.198Z,1023.93
2018-12-24T07:23:21.241Z,1023.90
2018-12-24T07:24:23.709Z,1023.95
2018-12-24T07:25:21.722Z,1023.92
2018-12-24T07:26:28.699Z,1023.96
2018-12-24T07:27:23.711Z,1023.94
2018-12-24T07:28:22.708Z,1023.97
2018-12-24T07:29:27.215Z,1023.97
2018-12-24T07:30:27.726Z,1024.01
2018-12-24T07:31:25.213Z,1024.05
2018-12-24T07:32:21.258Z,1024.05
2018-12-24T07:33:27.701Z,1024.08
2018-12-24T07:34:32.150Z,1024.09
2018-12-24T07:35:21.262Z,1024.08
2018-12-24T07:36:19.702Z,1024.11
2018-12-24T07:37:27.201Z,1024.11
2018-12-24T07:38:28.710Z,1024.10
2018-12-24T07:39:25.218Z,1024.10
2018-12-24T07:40:26.201Z,1024.11
2018-12-24T07:41:26.205Z,1024.13
2018-12-24T07:42:23.201Z,1024.18
2018-12-24T07:43:24.217Z,1024.22
2018-12-24T07:44:24.185Z,1024.23
2018-12-24T07:45:24.710Z,1024.26
2018-12-24T07:46:25.704Z,1024.31
2018-12-24T07:47:27.220Z,1024.32
2018-12-24T07:48:23.215Z,1024.37
2018-12-24T07:49:30.235Z,1024.36
2018-12-24T07:50:21.339Z,1024.42
2018-12-24T07:51:23.742Z,1024.39
2018-12-24T07:52:25.202Z,1024.42
2018-12-24T07:53:27.214Z,1024.40
2018-12-24T07:54:30.213Z,1024.44
2018-12-24T07:55:25.741Z,1024.49
2018-12-24T07:56:30.706Z,1024.51
2018-12-24T07:57:25.704Z,1024.53
2018-12-24T07:58:25.704Z,1024.52
2018-12-24T07:59:25.707Z,1024.53
2018-12-24T08:00:26.212Z,1024.57
2018-12-24T08:01:23.714Z,1024.56
2018-12-24T08:02:24.212Z,1024.58
2018-12-24T08:03:27.204Z,1024.60
2018-12-24T08:04:23.708Z,1024.59
2018-12-24T08:05:24.204Z,1024.59
2018-12-24T08:06:23.205Z,1024.60
2018-12-24T08:07:26.205Z,1024.54
2018-12-24T08:08:23.724Z,1024.57
2018-12-24T08:09:26.204Z,1024.58
2018-12-24T08:10:20.213Z,1024.52
2018-12-24T08:12:25.223Z,1024.54
2018-12-24T08:13:22.245Z,1024.62
2018-12-24T08:14:23.221Z,1024.58
2018-12-24T08:15:25.206Z,1024.61
2018-12-24T08:16:28.214Z,1024.64
2018-12-24T08:17:21.708Z,1024.68
2018-12-24T08:18:29.731Z,1024.69
2018-12-24T08:19:23.707Z,1024.71
2018-12-24T08:20:22.706Z,1024.77
2018-12-24T08:21:24.240Z,1024.73
2018-12-24T08:22:23.708Z,1024.78
2018-12-24T08:23:24.216Z,1024.82
2018-12-24T08:24:30.707Z,1024.76
2018-12-24T08:25:22.208Z,1024.85
2018-12-24T08:26:24.726Z,1024.88
2018-12-24T08:27:21.219Z,1024.86
2018-12-24T08:28:26.209Z,1024.87
2018-12-24T08:29:26.207Z,1024.89
2018-12-24T08:30:23.208Z,1024.93
2018-12-24T08:31:25.707Z,1024.94
2018-12-24T08:32:26.720Z,1025.00
2018-12-24T08:33:24.708Z,1025.00
2018-12-24T08:34:25.716Z,1025.02
2018-12-24T08:35:24.208Z,1025.05
2018-12-24T08:36:24.716Z,1025.04
2018-12-24T08:37:24.218Z,1025.12
2018-12-24T08:38:19.708Z,1025.11
2018-12-24T08:39:19.265Z,1025.19
2018-12-24T08:40:21.215Z,1025.19
2018-12-24T08:41:22.220Z,1025.25
2018-12-24T08:42:24.226Z,1025.26
2018-12-24T08:43:24.716Z,1025.32
2018-12-24T08:44:27.219Z,1025.38
2018-12-24T08:45:24.210Z,1025.38
2018-12-24T08:46:27.219Z,1025.45
2018-12-24T08:47:25.298Z,1025.40
2018-12-24T08:48:27.227Z,1025.41
2018-12-24T08:49:25.721Z,1025.45
2018-12-24T08:50:28.711Z,1025.48
2018-12-24T08:51:26.210Z,1025.54
2018-12-24T08:52:21.721Z,1025.59
2018-12-24T08:53:26.221Z,1025.65
2018-12-24T08:54:22.221Z,1025.64
2018-12-24T08:55:24.219Z,1025.61
2018-12-24T08:56:26.211Z,1025.68
2018-12-24T08:57:23.274Z,1025.74
2018-12-24T08:58:26.711Z,1025.77
2018-12-24T08:59:19.757Z,1025.78
2018-12-24T09:00:17.185Z,1025.81
2018-12-24T09:01:17.145Z,1025.83
2018-12-24T09:02:17.124Z,1025.87
2018-12-24T09:03:17.103Z,1025.91
2018-12-24T09:04:17.085Z,1025.89
2018-12-24T09:05:17.063Z,1025.95
2018-12-24T09:06:17.065Z,1026.00
2018-12-24T09:07:17.039Z,1026.00
2018-12-24T09:08:17.004Z,1026.01
2018-12-24T09:09:19.023Z,1026.08
2018-12-24T09:10:16.960Z,1026.10
2018-12-24T09:11:16.942Z,1026.12
2018-12-24T09:12:16.919Z,1026.18
2018-12-24T09:13:16.926Z,1026.20
2018-12-24T09:14:16.882Z,1026.23
2018-12-24T09:15:16.947Z,1026.25
2018-12-24T09:16:16.844Z,1026.28
2018-12-24T09:17:16.824Z,1026.30
2018-12-24T09:18:16.825Z,1026.33
2018-12-24T09:19:16.810Z,1026.33
2018-12-24T09:20:16.782Z,1026.34
2018-12-24T09:21:16.756Z,1026.39
2018-12-24T09:22:16.721Z,1026.41
2018-12-24T09:23:16.714Z,1026.45
2018-12-24T09:24:16.702Z,1026.48
2018-12-24T09:25:16.667Z,1026.52
2018-12-24T09:26:16.639Z,1026.51
2018-12-24T09:27:16.628Z,1026.57
2018-12-24T09:28:16.601Z,1026.60
2018-12-24T09:29:16.581Z,1026.54
2018-12-24T09:30:16.574Z,1026.64
2018-12-24T09:31:16.539Z,1026.62
2018-12-24T09:32:16.529Z,1026.66
2018-12-24T09:33:16.503Z,1026.66
2018-12-24T09:34:16.484Z,1026.70
2018-12-24T09:35:16.515Z,1026.77
2018-12-24T09:36:16.437Z,1026.79
2018-12-24T09:37:16.417Z,1026.83
2018-12-24T09:38:16.400Z,1026.85
2018-12-24T09:39:16.386Z,1026.87
2018-12-24T09:40:16.362Z,1026.92
2018-12-24T09:41:16.378Z,1026.92
2018-12-24T09:42:16.333Z,1026.95
2018-12-24T09:43:16.301Z,1026.98
2018-12-24T09:44:16.278Z,1026.97
2018-12-24T09:45:16.275Z,1026.98
2018-12-24T09:46:16.243Z,1027.01
2018-12-24T09:47:16.248Z,1027.04
2018-12-24T09:48:16.199Z,1027.06
2018-12-24T09:49:16.184Z,1027.05
2018-12-24T09:50:16.173Z,1027.01
2018-12-24T09:51:16.151Z,1027.05
2018-12-24T09:52:16.140Z,1027.07
2018-12-24T09:53:16.101Z,1027.06
2018-12-24T09:54:16.107Z,1027.07
2018-12-24T09:55:16.066Z,1027.09
2018-12-24T09:56:16.048Z,1027.10
2018-12-24T09:57:16.035Z,1027.13
2018-12-24T09:58:16.023Z,1027.12
2018-12-24T09:59:15.987Z,1027.15
2018-12-24T10:00:15.960Z,1027.18
2018-12-24T10:01:15.944Z,1027.17
2018-12-24T10:02:16.439Z,1027.20
2018-12-24T10:03:15.911Z,1027.24
2018-12-24T10:04:15.911Z,1027.26
2018-12-24T10:05:15.874Z,1027.28
2018-12-24T10:06:15.847Z,1027.28
2018-12-24T10:07:15.822Z,1027.32
2018-12-24T10:08:15.802Z,1027.31
2018-12-24T10:09:15.864Z,1027.41
2018-12-24T10:10:15.789Z,1027.39
2018-12-24T10:11:15.754Z,1027.38
2018-12-24T10:12:15.719Z,1027.39
2018-12-24T10:13:15.767Z,1027.39
2018-12-24T10:14:15.683Z,1027.37
2018-12-24T10:15:15.706Z,1027.41
2018-12-24T10:16:15.648Z,1027.47
2018-12-24T10:17:15.625Z,1027.43
2018-12-24T10:18:15.610Z,1027.45
2018-12-24T10:19:15.587Z,1027.45
2018-12-24T10:20:15.563Z,1027.46
2018-12-24T10:21:15.575Z,1027.48
2018-12-24T10:22:15.522Z,1027.47
2018-12-24T10:23:15.502Z,1027.49
2018-12-24T10:24:15.492Z,1027.47
2018-12-24T10:25:15.467Z,1027.47
2018-12-24T10:26:15.439Z,1027.47
2018-12-24T10:27:15.436Z,1027.46
2018-12-24T10:28:15.400Z,1027.52
2018-12-24T10:29:15.379Z,1027.45
2018-12-24T10:30:15.377Z,1027.46
2018-12-24T10:31:15.339Z,1027.51
2018-12-24T10:32:15.319Z,1027.47
2018-12-24T10:33:15.315Z,1027.51
2018-12-24T10:34:15.283Z,1027.43
2018-12-24T10:35:15.335Z,1027.51
2018-12-24T10:36:15.235Z,1027.49
2018-12-24T10:37:15.222Z,1027.44
2018-12-24T10:38:15.216Z,1027.46
2018-12-24T10:39:15.183Z,1027.44
2018-12-24T10:40:15.155Z,1027.50
2018-12-24T10:41:15.143Z,1027.50
2018-12-24T10:42:15.123Z,1027.50
2018-12-24T10:43:15.094Z,1027.54
2018-12-24T10:44:15.090Z,1027.52
2018-12-24T10:45:16.734Z,1027.54
2018-12-24T10:46:15.033Z,1027.51
2018-12-24T10:47:15.018Z,1027.53
2018-12-24T10:48:15.000Z,1027.53
2018-12-24T10:49:14.988Z,1027.53
2018-12-24T10:50:14.969Z,1027.47
2018-12-24T10:51:14.941Z,1027.48
2018-12-24T10:52:14.908Z,1027.47
2018-12-24T10:53:14.895Z,1027.49
2018-12-24T10:54:14.908Z,1027.48
2018-12-24T10:55:14.863Z,1027.48
2018-12-24T10:56:14.830Z,1027.45
2018-12-24T10:57:14.807Z,1027.42
2018-12-24T10:58:14.826Z,1027.42
2018-12-24T10:59:14.768Z,1027.46
2018-12-24T11:00:14.757Z,1027.45
2018-12-24T11:01:14.774Z,1027.40
2018-12-24T11:02:14.711Z,1027.44
2018-12-24T11:03:14.695Z,1027.50
2018-12-24T11:04:14.666Z,1027.48
2018-12-24T11:05:14.649Z,1027.50
2018-12-24T11:06:14.626Z,1027.55
2018-12-24T11:07:14.624Z,1027.52
2018-12-24T11:08:14.590Z,1027.55
2018-12-24T11:09:14.602Z,1027.56
2018-12-24T11:10:14.577Z,1027.56
2018-12-24T11:11:14.528Z,1027.59
2018-12-24T11:12:14.514Z,1027.58
2018-12-24T11:13:14.515Z,1027.59
2018-12-24T11:14:14.464Z,1027.56
2018-12-24T11:15:14.445Z,1027.56
2018-12-24T11:16:14.422Z,1027.60
2018-12-24T11:17:14.402Z,1027.59
2018-12-24T11:18:14.383Z,1027.59
2018-12-24T11:19:14.381Z,1027.63
2018-12-24T11:20:14.347Z,1027.61
2018-12-24T11:21:14.329Z,1027.62
2018-12-24T11:22:14.312Z,1027.61
2018-12-24T11:23:14.284Z,1027.62
2018-12-24T11:24:14.275Z,1027.62
2018-12-24T11:25:14.265Z,1027.63
2018-12-24T11:26:14.219Z,1027.58
2018-12-24T11:27:14.223Z,1027.59
2018-12-24T11:28:14.194Z,1027.55
2018-12-24T11:29:14.179Z,1027.59
2018-12-24T11:30:14.169Z,1027.59
2018-12-24T11:31:14.129Z,1027.54
2018-12-24T11:32:14.098Z,1027.61
2018-12-24T11:33:14.081Z,1027.65
2018-12-24T11:34:14.061Z,1027.67
2018-12-24T11:35:14.073Z,1027.65
2018-12-24T11:36:14.019Z,1027.68
2018-12-24T11:37:14.001Z,1027.67
2018-12-24T11:38:13.982Z,1027.75
2018-12-24T11:39:13.959Z,1027.70
2018-12-24T11:40:13.938Z,1027.71
2018-12-24T11:41:13.941Z,1027.71
2018-12-24T11:42:13.901Z,1027.72
2018-12-24T11:43:13.888Z,1027.69
2018-12-24T11:44:13.858Z,1027.65
2018-12-24T11:45:13.842Z,1027.63
2018-12-24T11:46:13.835Z,1027.68
2018-12-24T11:47:13.799Z,1027.68
2018-12-24T11:48:13.779Z,1027.67
2018-12-24T11:49:13.758Z,1027.67
2018-12-24T11:50:13.804Z,1027.72
2018-12-24T11:51:13.725Z,1027.71
2018-12-24T11:52:13.719Z,1027.68
2018-12-24T11:53:13.677Z,1027.68
2018-12-24T11:54:13.658Z,1027.68
2018-12-24T11:55:13.640Z,1027.65
2018-12-24T11:56:13.659Z,1027.62
2018-12-24T11:57:13.598Z,1027.64
2018-12-24T11:58:13.669Z,1027.64
2018-12-24T11:59:13.565Z,1027.67
2018-12-24T12:00:13.541Z,1027.73
2018-12-24T12:01:13.523Z,1027.76
2018-12-24T12:02:13.508Z,1027.76
2018-12-24T12:03:13.487Z,1027.77
2018-12-24T12:04:13.509Z,1027.75
2018-12-24T12:05:13.449Z,1027.74
2018-12-24T12:06:19.624Z,1027.73